createdAt,value
2022-08-05T00:00:05.902Z,100729.22
2022-08-05T00:00:54.027Z,100726.00
2022-08-05T00:01:48.870Z,100731.47
2022-08-05T00:02:37.953Z,100737.00
2022-08-05T00:03:30.415Z,100732.59
2022-08-05T00:04:18.248Z,100738.44
2022-08-05T00:05:05.881Z,100740.66
2022-08-05T00:06:04.960Z,100738.56
2022-08-05T00:06:59.093Z,100744.59
2022-08-05T00:08:00.439Z,100737.91
2022-08-05T00:08:47.925Z,100739.78
2022-08-05T00:09:34.512Z,100727.22
2022-08-05T00:10:22.928Z,100732.63
2022-08-05T00:11:23.829Z,100735.47
2022-08-05T00:12:21.462Z,100732.13
2022-08-05T00:13:08.861Z,100728.13
2022-08-05T00:14:12.777Z,100726.09
2022-08-05T00:15:54.094Z,100728.59
2022-08-05T00:16:13.600Z,100736.06
2022-08-05T00:17:01.731Z,100742.06
2022-08-05T00:17:48.963Z,100742.38
2022-08-05T00:18:38.162Z,100748.88
2022-08-05T00:19:33.116Z,100743.31
2022-08-05T00:20:20.552Z,100745.00
2022-08-05T00:21:08.458Z,100742.28
2022-08-05T00:21:55.154Z,100742.91
2022-08-05T00:22:42.277Z,100747.50
2022-08-05T00:23:46.763Z,100750.84
2022-08-05T00:24:42.493Z,100748.63
2022-08-05T00:25:34.591Z,100748.31
2022-08-05T00:26:32.706Z,100737.59
2022-08-05T00:27:19.203Z,100736.59
2022-08-05T00:28:05.961Z,100737.53
2022-08-05T00:28:52.606Z,100736.22
2022-08-05T00:29:39.145Z,100731.41
2022-08-05T00:30:29.239Z,100731.72
2022-08-05T00:31:52.952Z,100721.84
2022-08-05T00:32:25.888Z,100712.44
2022-08-05T00:34:42.358Z,100722.47
2022-08-05T00:34:56.488Z,100716.56
2022-08-05T00:35:33.129Z,100703.97
2022-08-05T00:37:11.094Z,100710.47
2022-08-05T00:37:26.729Z,100709.16
2022-08-05T00:38:28.893Z,100704.38
2022-08-05T00:39:20.358Z,100701.19
2022-08-05T00:40:09.471Z,100696.69
2022-08-05T00:40:59.401Z,100708.78
2022-08-05T00:41:55.199Z,100703.88
2022-08-05T00:42:42.439Z,100701.47
2022-08-05T00:43:47.062Z,100705.00
2022-08-05T00:44:36.505Z,100710.84
2022-08-05T00:45:28.239Z,100705.47
2022-08-05T00:46:42.453Z,100709.28
2022-08-05T00:47:53.260Z,100714.97
2022-08-05T00:48:35.970Z,100711.47
2022-08-05T00:49:51.280Z,100706.59
2022-08-05T00:50:44.259Z,100713.88
2022-08-05T00:51:51.628Z,100720.09
2022-08-05T00:52:39.210Z,100722.47
2022-08-05T00:54:00.944Z,100715.78
2022-08-05T00:54:32.533Z,100719.59
2022-08-05T00:55:19.113Z,100710.66
2022-08-05T00:56:07.837Z,100719.91
2022-08-05T00:56:54.611Z,100724.47
2022-08-05T00:57:58.158Z,100722.88
2022-08-05T00:58:45.726Z,100719.69
2022-08-05T00:59:42.035Z,100726.19
2022-08-05T01:00:31.982Z,100716.81
2022-08-05T01:01:42.065Z,100721.69
2022-08-05T01:02:26.757Z,100735.31
2022-08-05T01:03:23.116Z,100729.13
2022-08-05T01:04:13.579Z,100733.41
2022-08-05T01:05:00.901Z,100736.13
2022-08-05T01:05:54.833Z,100742.72
2022-08-05T01:06:41.557Z,100751.09
2022-08-05T01:07:33.377Z,100750.81
2022-08-05T01:08:40.069Z,100743.00
2022-08-05T01:09:30.371Z,100743.31
2022-08-05T01:10:22.105Z,100748.22
2022-08-05T01:11:22.543Z,100742.03
2022-08-05T01:12:22.214Z,100745.03
2022-08-05T01:13:22.455Z,100744.22
2022-08-05T01:14:52.681Z,100742.13
2022-08-05T01:15:47.757Z,100739.75
2022-08-05T01:16:47.828Z,100749.44
2022-08-05T01:17:53.852Z,100747.84
2022-08-05T01:18:48.148Z,100749.72
2022-08-05T01:20:01.880Z,100740.31
2022-08-05T01:21:07.751Z,100742.81
2022-08-05T01:22:10.968Z,100743.13
2022-08-05T01:23:59.797Z,100740.75
2022-08-05T01:25:05.657Z,100749.13
2022-08-05T01:26:02.895Z,100752.72
2022-08-05T01:27:26.415Z,100760.31
2022-08-05T01:28:51.765Z,100757.91
2022-08-05T01:29:45.590Z,100758.72
2022-08-05T01:30:39.694Z,100760.09
2022-08-05T01:31:42.600Z,100761.50
2022-08-05T01:32:36.871Z,100751.84
2022-08-05T01:33:35.423Z,100762.31
2022-08-05T01:34:29.621Z,100757.50
2022-08-05T01:35:51.639Z,100758.31
2022-08-05T01:36:42.326Z,100758.63
2022-08-05T01:37:52.915Z,100765.13
2022-08-05T01:38:43.956Z,100763.81
2022-08-05T01:39:45.840Z,100762.53
2022-08-05T01:40:35.044Z,100760.00
2022-08-05T01:41:26.026Z,100761.13
2022-08-05T01:42:20.494Z,100758.91
2022-08-05T01:43:10.094Z,100758.13
2022-08-05T01:44:12.645Z,100762.69
2022-08-05T01:45:04.383Z,100762.22
2022-08-05T01:45:57.634Z,100764.09
2022-08-05T01:46:46.444Z,100764.09
2022-08-05T01:47:39.641Z,100765.69
2022-08-05T01:48:29.689Z,100760.91
2022-08-05T01:49:24.324Z,100767.72
2022-08-05T01:50:17.487Z,100766.91
2022-08-05T01:51:11.889Z,100772.00
2022-08-05T01:52:02.877Z,100767.09
2022-08-05T01:53:14.984Z,100776.81
2022-08-05T01:54:27.264Z,100776.50
2022-08-05T01:55:17.922Z,100771.41
2022-08-05T01:56:09.087Z,100770.50
2022-08-05T01:58:29.946Z,100776.22
2022-08-05T01:58:40.284Z,100770.91
2022-08-05T01:59:20.453Z,100778.69
2022-08-05T02:00:12.480Z,100782.75
2022-08-05T02:01:02.265Z,100772.38
2022-08-05T02:01:51.700Z,100773.84
2022-08-05T02:02:57.556Z,100777.16
2022-08-05T02:03:48.458Z,100775.75
2022-08-05T02:04:40.532Z,100766.22
2022-08-05T02:05:35.929Z,100773.06
2022-08-05T02:06:33.436Z,100772.50
2022-08-05T02:07:25.074Z,100773.47
2022-08-05T02:08:28.925Z,100772.75
2022-08-05T02:09:20.588Z,100770.94
2022-08-05T02:10:08.098Z,100782.25
2022-08-05T02:11:03.582Z,100785.94
2022-08-05T02:12:05.022Z,100804.59
2022-08-05T02:13:20.886Z,100806.63
2022-08-05T02:14:13.043Z,100823.75
2022-08-05T02:15:12.271Z,100821.16
2022-08-05T02:16:07.637Z,100831.44
2022-08-05T02:18:28.317Z,100822.03
2022-08-05T02:18:41.819Z,100818.53
2022-08-05T02:19:28.526Z,100817.50
2022-08-05T02:20:23.691Z,100825.81
2022-08-05T02:21:17.375Z,100826.13
2022-08-05T02:22:26.552Z,100831.28
2022-08-05T02:23:22.271Z,100842.91
2022-08-05T02:24:18.011Z,100849.59
2022-08-05T02:25:25.206Z,100845.47
2022-08-05T02:26:20.704Z,100847.94
2022-08-05T02:27:11.754Z,100848.81
2022-08-05T02:28:00.614Z,100853.66
2022-08-05T02:28:49.913Z,100857.66
2022-08-05T02:29:59.022Z,100861.25
2022-08-05T02:30:54.657Z,100859.59
2022-08-05T02:31:47.347Z,100872.41
2022-08-05T02:32:35.130Z,100866.41
2022-08-05T02:33:38.418Z,100882.38
2022-08-05T02:34:30.230Z,100885.28
2022-08-05T02:35:27.732Z,100885.56
2022-08-05T02:36:19.032Z,100898.25
2022-08-05T02:37:10.188Z,100904.56
2022-08-05T02:38:00.156Z,100900.38
2022-08-05T02:38:53.216Z,100910.41
2022-08-05T02:39:42.424Z,100918.78
2022-08-05T02:40:36.208Z,100920.50
2022-08-05T02:41:28.678Z,100917.25
2022-08-05T02:42:25.857Z,100930.50
2022-08-05T02:43:18.002Z,100929.19
2022-08-05T02:44:13.281Z,100931.44
2022-08-05T02:45:01.870Z,100935.72
2022-08-05T02:45:52.848Z,100939.47
2022-08-05T02:46:59.972Z,100927.19
2022-08-05T02:48:06.623Z,100932.59
2022-08-05T02:48:57.645Z,100939.06
2022-08-05T02:49:48.094Z,100931.03
2022-08-05T02:50:37.005Z,100934.78
2022-08-05T02:51:28.428Z,100934.19
2022-08-05T02:52:33.734Z,100930.97
2022-08-05T02:53:22.644Z,100937.44
2022-08-05T02:54:11.886Z,100937.94
2022-08-05T02:55:54.454Z,100924.78
2022-08-05T02:56:27.457Z,100915.69
2022-08-05T02:58:09.834Z,100919.75
2022-08-05T02:58:26.705Z,100891.31
2022-08-05T02:59:18.817Z,100890.50
2022-08-05T03:00:06.694Z,100887.03
2022-08-05T03:00:56.534Z,100885.38
2022-08-05T03:01:44.977Z,100878.66
2022-08-05T03:02:39.022Z,100877.81
2022-08-05T03:03:33.711Z,100863.06
2022-08-05T03:04:37.395Z,100840.53
2022-08-05T03:06:56.815Z,100802.56
2022-08-05T03:06:57.025Z,100825.19
2022-08-05T03:08:06.928Z,100787.06
2022-08-05T03:08:52.274Z,100773.41
2022-08-05T03:09:43.882Z,100761.28
2022-08-05T03:10:38.771Z,100755.72
2022-08-05T03:11:53.307Z,100761.53
2022-08-05T03:12:37.119Z,100766.16
2022-08-05T03:13:27.543Z,100777.69
2022-08-05T03:14:30.116Z,100787.63
2022-08-05T03:15:17.193Z,100804.75
2022-08-05T03:16:03.755Z,100810.97
2022-08-05T03:16:51.800Z,100804.75
2022-08-05T03:17:41.422Z,100811.66
2022-08-05T03:18:29.988Z,100820.59
2022-08-05T03:19:33.056Z,100823.00
2022-08-05T03:20:20.781Z,100832.19
2022-08-05T03:21:07.542Z,100836.19
2022-08-05T03:21:54.482Z,100838.53
2022-08-05T03:22:46.771Z,100838.53
2022-08-05T03:23:40.390Z,100844.94
2022-08-05T03:24:30.006Z,100852.94
2022-08-05T03:25:32.711Z,100850.50
2022-08-05T03:26:31.596Z,100849.13
2022-08-05T03:27:20.735Z,100857.69
2022-08-05T03:28:08.923Z,100856.16
2022-08-05T03:28:56.037Z,100858.88
2022-08-05T03:29:54.417Z,100862.88
2022-08-05T03:30:51.701Z,100860.44
2022-08-05T03:31:55.802Z,100868.50
2022-08-05T03:32:43.758Z,100869.00
2022-08-05T03:33:42.317Z,100873.25
2022-08-05T03:34:38.664Z,100877.88
2022-08-05T03:35:28.497Z,100866.53
2022-08-05T03:36:15.432Z,100869.53
2022-08-05T03:37:03.305Z,100866.00
2022-08-05T03:37:49.878Z,100866.25
2022-08-05T03:38:42.060Z,100862.72
2022-08-05T03:39:30.085Z,100861.13
2022-08-05T03:40:32.379Z,100867.53
2022-08-05T03:41:19.206Z,100867.53
2022-08-05T03:42:10.189Z,100875.84
2022-08-05T03:42:56.698Z,100881.19
2022-08-05T03:44:08.881Z,100881.19
2022-08-05T03:44:51.258Z,100879.22
2022-08-05T03:45:58.117Z,100889.44
2022-08-05T03:46:45.043Z,100887.94
2022-08-05T03:47:35.467Z,100882.78
2022-08-05T03:48:29.328Z,100878.06
2022-08-05T03:49:16.015Z,100879.66
2022-08-05T03:50:02.583Z,100878.84
2022-08-05T03:52:48.778Z,100870.22
2022-08-05T03:52:49.155Z,100860.16
2022-08-05T03:55:51.765Z,100866.00
2022-08-05T03:56:06.028Z,100856.31
2022-08-05T03:56:27.747Z,100855.53
2022-08-05T03:57:29.003Z,100853.09
2022-08-05T03:58:33.295Z,100857.69
2022-08-05T03:59:26.121Z,100853.38
2022-08-05T04:00:19.570Z,100852.84
2022-08-05T04:01:11.258Z,100846.88
2022-08-05T04:02:02.555Z,100844.06
2022-08-05T04:02:58.877Z,100843.00
2022-08-05T04:04:09.267Z,100843.19
2022-08-05T04:04:58.672Z,100843.09
2022-08-05T04:05:45.904Z,100842.09
2022-08-05T04:06:35.287Z,100845.31
2022-08-05T04:07:24.889Z,100840.72
2022-08-05T04:08:29.760Z,100838.63
2022-08-05T04:09:26.387Z,100849.66
2022-08-05T04:10:13.730Z,100853.16
2022-08-05T04:11:08.433Z,100847.72
2022-08-05T04:11:56.405Z,100848.25
2022-08-05T04:12:44.414Z,100848.75
2022-08-05T04:13:49.813Z,100839.84
2022-08-05T04:14:38.725Z,100837.72
2022-08-05T04:15:25.645Z,100834.19
2022-08-05T04:16:14.595Z,100823.81
2022-08-05T04:17:03.344Z,100824.31
2022-08-05T04:17:56.685Z,100821.72
2022-08-05T04:18:47.594Z,100817.63
2022-08-05T04:19:46.305Z,100821.41
2022-08-05T04:20:41.455Z,100810.41
2022-08-05T04:22:08.931Z,100818.66
2022-08-05T04:22:35.086Z,100818.63
2022-08-05T04:24:05.104Z,100821.13
2022-08-05T04:24:34.761Z,100816.22
2022-08-05T04:25:38.362Z,100816.69
2022-08-05T04:26:32.272Z,100811.59
2022-08-05T04:27:19.320Z,100809.53
2022-08-05T04:28:30.711Z,100797.25
2022-08-05T04:29:18.922Z,100798.28
2022-08-05T04:30:09.097Z,100789.41
2022-08-05T04:30:55.631Z,100782.47
2022-08-05T04:31:42.915Z,100779.00
2022-08-05T04:32:30.976Z,100777.63
2022-08-05T04:33:20.511Z,100773.56
2022-08-05T04:34:32.614Z,100762.25
2022-08-05T04:35:21.188Z,100752.19
2022-08-05T04:36:16.304Z,100738.19
2022-08-05T04:37:16.898Z,100720.91
2022-08-05T04:38:06.783Z,100718.09
2022-08-05T04:38:55.037Z,100710.72
2022-08-05T04:39:43.577Z,100713.84
2022-08-05T04:40:34.180Z,100719.78
2022-08-05T04:41:20.978Z,100734.22
2022-08-05T04:42:20.775Z,100757.38
2022-08-05T04:43:16.693Z,100785.13
2022-08-05T04:44:09.622Z,100787.31
2022-08-05T04:44:56.330Z,100788.78
2022-08-05T04:45:48.957Z,100780.94
2022-08-05T04:46:41.256Z,100774.50
2022-08-05T04:47:38.530Z,100760.22
2022-08-05T04:48:29.291Z,100761.31
2022-08-05T04:49:15.775Z,100775.66
2022-08-05T04:50:11.266Z,100793.66
2022-08-05T04:51:03.236Z,100813.84
2022-08-05T04:52:00.193Z,100824.88
2022-08-05T04:52:47.181Z,100824.59
2022-08-05T04:53:36.428Z,100820.88
2022-08-05T04:54:28.293Z,100822.91
2022-08-05T04:55:15.423Z,100819.69
2022-08-05T04:56:32.699Z,100819.38
2022-08-05T04:57:09.691Z,100831.63
2022-08-05T04:57:56.180Z,100825.00
2022-08-05T04:58:42.880Z,100835.25
2022-08-05T04:59:38.361Z,100830.44
2022-08-05T05:00:26.024Z,100840.19
2022-08-05T05:01:12.703Z,100851.78
2022-08-05T05:02:06.850Z,100850.69
2022-08-05T05:03:08.015Z,100854.94
2022-08-05T05:03:54.732Z,100851.69
2022-08-05T05:04:44.144Z,100853.88
2022-08-05T05:06:40.241Z,100861.16
2022-08-05T05:06:44.381Z,100863.06
2022-08-05T05:07:35.617Z,100850.75
2022-08-05T05:08:30.163Z,100855.84
2022-08-05T05:09:18.412Z,100850.78
2022-08-05T05:10:06.617Z,100858.41
2022-08-05T05:10:56.687Z,100859.53
2022-08-05T05:11:55.632Z,100857.34
2022-08-05T05:12:43.428Z,100858.72
2022-08-05T05:13:32.403Z,100857.34
2022-08-05T05:14:31.987Z,100861.16
2022-08-05T05:15:56.510Z,100856.03
2022-08-05T05:16:30.338Z,100867.41
2022-08-05T05:17:22.857Z,100871.41
2022-08-05T05:18:15.269Z,100861.56
2022-08-05T05:19:19.243Z,100873.31
2022-08-05T05:20:11.765Z,100867.34
2022-08-05T05:20:58.639Z,100864.38
2022-08-05T05:21:45.262Z,100858.50
2022-08-05T05:22:33.314Z,100863.84
2022-08-05T05:23:20.240Z,100860.09
2022-08-05T05:24:08.914Z,100847.75
2022-08-05T05:24:58.814Z,100853.63
2022-08-05T05:25:46.195Z,100849.88
2022-08-05T05:26:34.370Z,100847.38
2022-08-05T05:27:22.294Z,100846.00
2022-08-05T05:28:10.390Z,100835.25
2022-08-05T05:28:57.099Z,100841.63
2022-08-05T05:30:04.225Z,100836.59
2022-08-05T05:30:50.159Z,100839.50
2022-08-05T05:32:23.201Z,100839.81
2022-08-05T05:33:17.113Z,100844.09
2022-08-05T05:34:04.157Z,100834.91
2022-08-05T05:34:52.494Z,100846.53
2022-08-05T05:35:39.783Z,100843.91
2022-08-05T05:36:30.211Z,100847.09
2022-08-05T05:37:16.936Z,100840.31
2022-08-05T05:38:05.609Z,100845.66
2022-08-05T05:38:57.134Z,100841.88
2022-08-05T05:39:44.021Z,100843.38
2022-08-05T05:40:32.617Z,100842.53
2022-08-05T05:41:20.847Z,100845.22
2022-08-05T05:42:07.366Z,100840.41
2022-08-05T05:42:54.592Z,100838.25
2022-08-05T05:43:58.471Z,100842.50
2022-08-05T05:44:46.915Z,100851.91
2022-08-05T05:45:33.679Z,100851.34
2022-08-05T05:46:20.203Z,100849.72
2022-08-05T05:47:13.311Z,100854.56
2022-08-05T05:48:09.020Z,100857.84
2022-08-05T05:48:55.626Z,100859.22
2022-08-05T05:49:42.199Z,100856.75
2022-08-05T05:50:28.718Z,100855.69
2022-08-05T05:51:49.764Z,100855.41
2022-08-05T05:52:38.126Z,100856.97
2022-08-05T05:53:27.433Z,100859.56
2022-08-05T05:54:14.586Z,100861.88
2022-08-05T05:55:13.440Z,100850.94
2022-08-05T05:56:03.154Z,100863.84
2022-08-05T05:56:49.945Z,100863.56
2022-08-05T05:57:52.004Z,100863.56
2022-08-05T05:58:38.990Z,100866.22
2022-08-05T05:59:28.703Z,100861.53
2022-08-05T06:00:18.643Z,100862.94
2022-08-05T06:01:13.331Z,100867.94
2022-08-05T06:02:01.937Z,100873.28
2022-08-05T06:02:48.907Z,100868.63
2022-08-05T06:03:54.103Z,100876.88
2022-08-05T06:04:43.931Z,100875.38
2022-08-05T06:05:35.800Z,100879.63
2022-08-05T06:06:22.435Z,100882.84
2022-08-05T06:07:08.941Z,100870.19
2022-08-05T06:07:57.948Z,100869.91
2022-08-05T06:08:49.199Z,100874.53
2022-08-05T06:10:00.012Z,100877.72
2022-08-05T06:10:52.676Z,100879.34
2022-08-05T06:11:39.544Z,100877.47
2022-08-05T06:12:27.257Z,100881.91
2022-08-05T06:13:15.031Z,100877.59
2022-08-05T06:14:02.204Z,100880.69
2022-08-05T06:14:49.025Z,100884.03
2022-08-05T06:16:28.194Z,100875.84
2022-08-05T06:16:45.181Z,100880.28
2022-08-05T06:17:52.977Z,100881.81
2022-08-05T06:18:40.684Z,100883.53
2022-08-05T06:19:35.014Z,100877.75
2022-08-05T06:20:22.152Z,100889.03
2022-08-05T06:21:18.538Z,100889.28
2022-08-05T06:22:07.776Z,100882.47
2022-08-05T06:22:55.944Z,100884.06
2022-08-05T06:23:44.932Z,100881.22
2022-08-05T06:24:32.391Z,100891.03
2022-08-05T06:25:59.095Z,100886.94
2022-08-05T06:26:25.557Z,100901.22
2022-08-05T06:28:11.314Z,100895.78
2022-08-05T06:28:28.411Z,100896.44
2022-08-05T06:29:25.444Z,100897.09
2022-08-05T06:30:21.607Z,100906.69
2022-08-05T06:31:18.237Z,100902.41
2022-08-05T06:32:25.292Z,100914.38
2022-08-05T06:33:12.984Z,100908.06
2022-08-05T06:34:08.729Z,100907.22
2022-08-05T06:34:58.153Z,100911.81
2022-08-05T06:36:07.066Z,100905.03
2022-08-05T06:36:57.472Z,100907.72
2022-08-05T06:37:56.301Z,100905.03
2022-08-05T06:38:46.915Z,100902.41
2022-08-05T06:39:34.079Z,100911.00
2022-08-05T06:40:21.437Z,100905.38
2022-08-05T06:41:14.291Z,100906.78
2022-08-05T06:42:04.137Z,100909.09
2022-08-05T06:42:52.519Z,100907.63
2022-08-05T06:43:57.835Z,100906.78
2022-08-05T06:44:45.788Z,100908.28
2022-08-05T06:46:03.854Z,100905.63
2022-08-05T06:46:54.727Z,100902.19
2022-08-05T06:48:36.174Z,100902.41
2022-08-05T06:48:56.151Z,100904.88
2022-08-05T06:50:00.569Z,100902.47
2022-08-05T06:50:49.919Z,100904.81
2022-08-05T06:51:36.543Z,100908.44
2022-08-05T06:52:37.712Z,100904.72
2022-08-05T06:53:28.700Z,100905.38
2022-08-05T06:54:19.032Z,100906.53
2022-08-05T06:55:06.929Z,100903.84
2022-08-05T06:55:53.400Z,100904.88
2022-08-05T06:56:40.721Z,100905.31
2022-08-05T06:58:03.356Z,100902.47
2022-08-05T06:58:48.131Z,100902.31
2022-08-05T06:59:38.703Z,100904.56
2022-08-05T07:00:25.653Z,100910.63
2022-08-05T07:01:13.373Z,100917.94
2022-08-05T07:02:00.182Z,100916.91
2022-08-05T07:02:47.837Z,100912.72
2022-08-05T07:03:40.472Z,100921.91
2022-08-05T07:04:27.032Z,100918.88
2022-08-05T07:05:18.674Z,100920.75
2022-08-05T07:06:14.347Z,100920.81
2022-08-05T07:07:01.879Z,100920.50
2022-08-05T07:07:49.004Z,100923.44
2022-08-05T07:08:35.506Z,100922.03
2022-08-05T07:09:24.896Z,100922.84
2022-08-05T07:10:16.298Z,100921.47
2022-08-05T07:11:04.812Z,100925.53
2022-08-05T07:11:51.849Z,100925.53
2022-08-05T07:12:57.035Z,100928.09
2022-08-05T07:14:02.664Z,100921.41
2022-08-05T07:15:08.837Z,100927.06
2022-08-05T07:17:56.485Z,100926.25
2022-08-05T07:17:59.255Z,100934.00
2022-08-05T07:18:30.108Z,100935.41
2022-08-05T07:20:37.171Z,100947.78
2022-08-05T07:21:25.724Z,100952.59
2022-08-05T07:22:15.863Z,100956.22
2022-08-05T07:23:02.616Z,100948.72
2022-08-05T07:23:52.272Z,100954.66
2022-08-05T07:24:44.069Z,100952.72
2022-08-05T07:25:56.471Z,100958.19
2022-08-05T07:26:46.707Z,100953.34
2022-08-05T07:27:58.317Z,100951.03
2022-08-05T07:28:40.126Z,100962.59
2022-08-05T07:30:28.131Z,100962.81
2022-08-05T07:30:38.568Z,100967.25
2022-08-05T07:31:54.280Z,100966.22
2022-08-05T07:32:38.438Z,100956.84
2022-08-05T07:33:36.890Z,100961.66
2022-08-05T07:34:28.477Z,100966.00
2022-08-05T07:36:02.938Z,100967.72
2022-08-05T07:36:22.003Z,100974.19
2022-08-05T07:37:09.142Z,100963.16
2022-08-05T07:37:58.281Z,100955.59
2022-08-05T07:38:45.942Z,100953.00
2022-08-05T07:40:26.642Z,100964.19
2022-08-05T07:40:44.581Z,100967.16
2022-08-05T07:42:14.383Z,100966.81
2022-08-05T07:42:38.117Z,100966.41
2022-08-05T07:43:24.755Z,100970.00
2022-08-05T07:44:14.046Z,100978.63
2022-08-05T07:45:07.759Z,100973.78
2022-08-05T07:45:57.224Z,100977.59
2022-08-05T07:46:48.613Z,100973.34
2022-08-05T07:47:42.187Z,100963.94
2022-08-05T07:49:00.967Z,100967.44
2022-08-05T07:49:43.627Z,100978.72
2022-08-05T07:50:40.635Z,100985.97
2022-08-05T07:51:37.359Z,100978.25
2022-08-05T07:52:28.649Z,100981.22
2022-08-05T07:53:15.135Z,100986.91
2022-08-05T07:54:01.799Z,100984.56
2022-08-05T07:54:49.207Z,100990.25
2022-08-05T07:55:44.226Z,100982.22
2022-08-05T07:57:02.613Z,100979.56
2022-08-05T07:58:02.160Z,100985.59
2022-08-05T07:58:54.641Z,100993.13
2022-08-05T07:59:44.537Z,100990.13
2022-08-05T08:00:33.612Z,100987.75
2022-08-05T08:01:21.950Z,100987.25
2022-08-05T08:02:15.848Z,100997.59
2022-08-05T08:03:15.407Z,100986.06
2022-08-05T08:04:03.073Z,100999.53
2022-08-05T08:04:50.828Z,101000.56
2022-08-05T08:05:49.361Z,100995.56
2022-08-05T08:06:37.346Z,101004.19
2022-08-05T08:07:24.536Z,100999.09
2022-08-05T08:08:19.784Z,101003.94
2022-08-05T08:09:06.624Z,101003.69
2022-08-05T08:09:54.966Z,101005.84
2022-08-05T08:10:42.172Z,101002.69
2022-08-05T08:11:48.230Z,101004.84
2022-08-05T08:12:49.624Z,101005.41
2022-08-05T08:13:49.267Z,101004.63
2022-08-05T08:14:46.523Z,101013.25
2022-08-05T08:16:33.317Z,101015.44
2022-08-05T08:16:51.091Z,101013.03
2022-08-05T08:17:38.250Z,101017.56
2022-08-05T08:18:24.792Z,101011.63
2022-08-05T08:20:00.496Z,101020.81
2022-08-05T08:20:42.980Z,101023.78
2022-08-05T08:21:24.420Z,101027.22
2022-08-05T08:22:11.698Z,101021.00
2022-08-05T08:23:07.405Z,101020.47
2022-08-05T08:24:13.558Z,101026.41
2022-08-05T08:25:02.802Z,101027.78
2022-08-05T08:26:00.086Z,101035.84
2022-08-05T08:26:50.700Z,101030.47
2022-08-05T08:27:45.131Z,101031.03
2022-08-05T08:28:36.943Z,101032.13
2022-08-05T08:30:06.529Z,101029.44
2022-08-05T08:30:49.893Z,101036.41
2022-08-05T08:31:36.719Z,101033.22
2022-08-05T08:32:28.411Z,101036.75
2022-08-05T08:33:14.977Z,101040.50
2022-08-05T08:34:01.786Z,101034.63
2022-08-05T08:34:48.312Z,101036.78
2022-08-05T08:35:41.207Z,101031.63
2022-08-05T08:36:38.898Z,101037.56
2022-08-05T08:37:28.586Z,101036.47
2022-08-05T08:38:16.715Z,101044.25
2022-08-05T08:39:19.182Z,101048.28
2022-08-05T08:40:06.586Z,101045.31
2022-08-05T08:40:53.960Z,101054.44
2022-08-05T08:41:52.231Z,101059.28
2022-08-05T08:42:53.027Z,101051.53
2022-08-05T08:45:19.740Z,101053.16
2022-08-05T08:45:23.609Z,101052.06
2022-08-05T08:45:58.906Z,101051.56
2022-08-05T08:46:48.427Z,101045.69
2022-08-05T08:48:05.836Z,101060.19
2022-08-05T08:49:06.402Z,101057.78
2022-08-05T08:50:22.975Z,101061.56
2022-08-05T08:51:54.514Z,101062.63
2022-08-05T08:52:23.037Z,101056.19
2022-08-05T08:53:16.937Z,101068.81
2022-08-05T08:54:04.531Z,101066.09
2022-08-05T08:54:55.238Z,101070.41
2022-08-05T08:56:03.384Z,101068.28
2022-08-05T08:56:52.045Z,101071.75
2022-08-05T08:57:48.386Z,101081.16
2022-08-05T08:58:48.815Z,101081.41
2022-08-05T08:59:36.262Z,101081.44
2022-08-05T09:00:23.279Z,101081.41
2022-08-05T09:01:16.745Z,101084.09
2022-08-05T09:02:08.620Z,101087.63
2022-08-05T09:02:56.783Z,101088.16
2022-08-05T09:03:54.507Z,101095.69
2022-08-05T09:04:57.843Z,101087.34
2022-08-05T09:06:08.487Z,101097.53
2022-08-05T09:06:55.433Z,101097.28
2022-08-05T09:07:56.639Z,101096.75
2022-08-05T09:08:44.741Z,101098.91
2022-08-05T09:09:32.452Z,101106.41
2022-08-05T09:10:22.183Z,101091.91
2022-08-05T09:11:15.034Z,101091.41
2022-08-05T09:12:20.083Z,101095.94
2022-08-05T09:13:15.318Z,101092.72
2022-08-05T09:14:54.257Z,101105.34
2022-08-05T09:15:10.908Z,101108.28
2022-08-05T09:16:03.173Z,101101.59
2022-08-05T09:16:50.270Z,101103.72
2022-08-05T09:17:40.950Z,101104.78
2022-08-05T09:18:29.276Z,101102.13
2022-08-05T09:19:16.680Z,101111.78
2022-08-05T09:20:05.862Z,101105.63
2022-08-05T09:20:52.819Z,101105.63
2022-08-05T09:22:22.620Z,101095.66
2022-08-05T09:23:09.509Z,101099.44
2022-08-05T09:24:05.535Z,101098.63
2022-08-05T09:25:23.902Z,101094.59
2022-08-05T09:26:20.818Z,101096.19
2022-08-05T09:27:09.746Z,101094.06
2022-08-05T09:28:04.601Z,101103.44
2022-08-05T09:28:59.051Z,101096.19
2022-08-05T09:29:49.722Z,101103.72
2022-08-05T09:30:37.202Z,101088.91
2022-08-05T09:32:41.483Z,101102.09
2022-08-05T09:32:45.777Z,101095.88
2022-08-05T09:33:51.097Z,101104.78
2022-08-05T09:34:48.755Z,101099.66
2022-08-05T09:35:36.149Z,101101.78
2022-08-05T09:36:27.612Z,101107.75
2022-08-05T09:38:16.536Z,101109.31
2022-08-05T09:38:31.879Z,101105.59
2022-08-05T09:39:21.988Z,101102.66
2022-08-05T09:40:10.568Z,101097.28
2022-08-05T09:41:24.971Z,101102.09
2022-08-05T09:42:23.246Z,101102.63
2022-08-05T09:43:40.185Z,101103.41
2022-08-05T09:44:38.053Z,101103.97
2022-08-05T09:46:06.205Z,101100.78
2022-08-05T09:46:51.623Z,101104.50
2022-08-05T09:47:55.184Z,101102.59
2022-08-05T09:48:43.289Z,101100.38
2022-08-05T09:50:02.459Z,101116.50
2022-08-05T09:50:55.719Z,101106.84
2022-08-05T09:51:42.232Z,101116.84
2022-08-05T09:52:34.879Z,101109.06
2022-08-05T09:53:26.240Z,101115.25
2022-08-05T09:54:31.599Z,101115.50
2022-08-05T09:55:57.297Z,101113.88
2022-08-05T09:56:33.346Z,101120.03
2022-08-05T09:57:35.786Z,101120.59
2022-08-05T09:58:29.155Z,101124.59
2022-08-05T09:59:17.528Z,101127.28
2022-08-05T10:00:23.245Z,101125.44
2022-08-05T10:01:15.107Z,101124.34
2022-08-05T10:02:02.452Z,101130.56
2022-08-05T10:02:51.650Z,101137.50
2022-08-05T10:03:56.589Z,101130.03
2022-08-05T10:04:45.159Z,101127.88
2022-08-05T10:05:32.724Z,101139.69
2022-08-05T10:06:20.724Z,101136.75
2022-08-05T10:07:19.691Z,101146.94
2022-08-05T10:08:35.057Z,101151.53
2022-08-05T10:09:27.303Z,101143.72
2022-08-05T10:10:17.988Z,101153.94
2022-08-05T10:11:16.953Z,101147.75
2022-08-05T10:12:30.722Z,101148.59
2022-08-05T10:13:45.766Z,101152.88
2022-08-05T10:14:34.775Z,101148.31
2022-08-05T10:15:29.739Z,101156.91
2022-08-05T10:16:37.622Z,101158.25
2022-08-05T10:17:37.354Z,101159.84
2022-08-05T10:18:27.532Z,101166.03
2022-08-05T10:19:16.154Z,101166.56
2022-08-05T10:20:16.573Z,101160.66
2022-08-05T10:21:11.826Z,101167.38
2022-08-05T10:22:02.341Z,101164.13
2022-08-05T10:22:51.132Z,101157.97
2022-08-05T10:23:59.671Z,101164.94
2022-08-05T10:24:46.003Z,101167.59
2022-08-05T10:25:32.712Z,101168.94
2022-08-05T10:26:19.581Z,101174.28
2022-08-05T10:27:26.305Z,101171.31
2022-08-05T10:28:30.654Z,101179.66
2022-08-05T10:29:23.709Z,101180.19